createdAt,value
2023-01-13T00:05:57.316Z,801.70021
2023-01-13T00:20:59.578Z,834.80876
2023-01-13T00:36:01.981Z,808.57193
2023-01-13T00:51:04.322Z,789.62103
2023-01-13T01:06:06.654Z,770.69766
2023-01-13T01:21:09.026Z,690.22824
2023-01-13T01:36:11.508Z,646.65485
2023-01-13T01:51:13.825Z,641.95618
2023-01-13T02:06:16.140Z,652.02376
2023-01-13T02:21:18.462Z,638.47675
2023-01-13T02:36:20.806Z,623.27493
2023-01-13T02:51:23.162Z,565.43507
2023-01-13T03:06:25.854Z,541.60449
2023-01-13T03:21:28.330Z,553.91367
2023-01-13T03:36:30.642Z,568.61933
2023-01-13T03:51:33.033Z,574.62912
2023-01-13T04:06:35.384Z,602.03901
2023-01-13T04:21:37.696Z,554.78324
2023-01-13T04:36:40.015Z,572.30269
2023-01-13T04:51:42.561Z,575.565
2023-01-13T05:06:44.833Z,578.39101
2023-01-13T05:21:47.238Z,602.55225
2023-01-13T05:36:49.587Z,599.99473
2023-01-13T05:51:51.887Z,588.99484
2023-01-13T06:06:54.203Z,602.03901
2023-01-13T06:21:56.949Z,601.52663
2023-01-13T06:36:59.283Z,608.78018
2023-01-13T06:52:01.672Z,614.60329
2023-01-13T07:07:04.129Z,629.38003
2023-01-13T07:22:06.487Z,768.18725
2023-01-13T07:37:08.924Z,810.42432
2023-01-13T07:52:11.260Z,793.60678
2023-01-13T08:07:13.667Z,768.18725
2023-01-13T08:22:15.946Z,697.72331
2023-01-13T08:37:18.379Z,711.06007
2023-01-13T08:52:20.731Z,697.03522
2023-01-13T09:07:23.061Z,674.4215
2023-01-13T09:22:25.465Z,657.48256
2023-01-13T09:37:27.796Z,634.46478
2023-01-13T09:52:30.448Z,640.21174
2023-01-13T10:07:33.000Z,655.04518
2023-01-13T10:22:35.410Z,678.30492
2023-01-13T10:37:37.771Z,673.77858
2023-01-13T10:52:40.078Z,673.13689
2023-01-13T11:07:42.397Z,676.35764
2023-01-13T11:22:44.746Z,669.31225
2023-01-13T11:37:47.067Z,780.47485
2023-01-13T11:52:49.365Z,793.16193
2023-01-13T12:07:51.733Z,786.98604
2023-01-13T12:22:54.055Z,813.21889
2023-01-13T12:37:57.037Z,878.88249
2023-01-13T12:52:59.416Z,843.26629
2023-01-13T13:08:01.844Z,835.79494
2023-01-13T13:23:04.224Z,813.68652
2023-01-13T13:38:06.641Z,798.08284
2023-01-13T13:53:09.182Z,771.53812
2023-01-13T14:08:11.687Z,658.09474
2023-01-13T14:23:14.116Z,623.27493
2023-01-13T14:38:16.494Z,591.95461
2023-01-13T14:53:18.892Z,577.44593
2023-01-13T15:08:21.341Z,573.231
2023-01-13T15:23:23.867Z,578.86472
2023-01-13T15:38:26.200Z,577.44593
2023-01-13T15:53:28.785Z,590.47102
2023-01-13T16:08:31.175Z,617.82673
2023-01-13T16:23:33.584Z,618.90874
2023-01-13T16:38:36.042Z,632.76076
2023-01-13T16:53:38.547Z,624.37613
2023-01-13T17:08:41.026Z,612.47295
2023-01-13T17:23:43.369Z,564.53182
2023-01-13T17:38:45.730Z,564.98308
2023-01-13T17:53:48.120Z,581.7233
2023-01-13T18:08:50.550Z,606.16963
2023-01-13T18:23:52.901Z,622.72579
2023-01-13T18:38:55.330Z,643.12444
2023-01-13T18:53:57.816Z,647.24703
2023-01-13T19:09:00.164Z,652.02376
2023-01-13T19:24:02.579Z,647.84029
2023-01-13T19:39:04.966Z,636.17801
2023-01-13T19:54:07.327Z,625.48122
2023-01-13T20:09:09.718Z,564.98308
2023-01-13T20:24:12.169Z,567.25026
2023-01-13T20:39:14.541Z,580.29049
2023-01-13T20:54:16.948Z,563.63145
2023-01-13T21:09:19.274Z,579.33919
2023-01-13T21:24:21.746Z,583.16321
2023-01-13T21:39:24.214Z,557.40839
2023-01-13T21:54:27.310Z,576.97455
2023-01-13T22:09:29.631Z,595.94756
2023-01-13T22:24:33.050Z,639.63236
2023-01-13T22:39:35.340Z,606.16963
2023-01-13T22:54:37.586Z,599.99473
2023-01-13T23:09:39.904Z,572.76647
2023-01-13T23:24:42.166Z,559.17234
2023-01-13T23:39:44.471Z,594.4439
2023-01-13T23:54:46.796Z,628.82008
